createdAt,value
2023-03-05T00:04:42.694Z,71.20
2023-03-05T00:09:45.583Z,71.97
2023-03-05T00:14:48.491Z,71.71
2023-03-05T00:19:51.317Z,71.21
2023-03-05T00:24:54.189Z,71.43
2023-03-05T00:29:57.201Z,71.59
2023-03-05T00:34:59.994Z,71.61
2023-03-05T00:40:04.421Z,71.39
2023-03-05T00:45:09.627Z,71.39
2023-03-05T00:50:12.494Z,72.50
2023-03-05T00:55:15.406Z,73.53
2023-03-05T01:00:18.776Z,74.76
2023-03-05T01:05:21.740Z,75.79
2023-03-05T01:10:28.063Z,77.12
2023-03-05T01:15:30.885Z,77.63
2023-03-05T01:20:34.091Z,77.97
2023-03-05T01:25:37.097Z,78.02
2023-03-05T01:30:39.900Z,78.51
2023-03-05T01:35:43.055Z,78.58
2023-03-05T01:40:46.237Z,78.67
2023-03-05T01:46:07.727Z,78.38
2023-03-05T01:51:10.864Z,79.11
2023-03-05T01:56:13.976Z,80.13
2023-03-05T02:01:17.355Z,80.46
2023-03-05T02:06:20.190Z,81.02
2023-03-05T02:11:23.292Z,81.08
2023-03-05T02:16:26.037Z,81.60
2023-03-05T02:21:37.298Z,81.83
2023-03-05T02:26:40.512Z,82.22
2023-03-05T02:31:43.637Z,82.33
2023-03-05T02:36:46.935Z,83.05
2023-03-05T02:41:49.738Z,83.68
2023-03-05T02:46:53.581Z,84.33
2023-03-05T02:51:56.459Z,85.53
2023-03-05T02:56:59.369Z,86.04
2023-03-05T03:02:02.266Z,85.95
2023-03-05T03:07:05.272Z,86.55
2023-03-05T03:12:08.495Z,87.36
2023-03-05T03:17:14.361Z,87.61
2023-03-05T03:22:17.262Z,87.43
2023-03-05T03:27:20.177Z,87.71
2023-03-05T03:32:23.117Z,87.76
2023-03-05T03:37:25.976Z,87.67
2023-03-05T03:42:28.876Z,87.41
2023-03-05T03:47:31.782Z,87.78
2023-03-05T03:52:34.894Z,87.56
2023-03-05T03:57:37.700Z,87.43
2023-03-05T04:02:40.692Z,87.00
2023-03-05T04:07:45.549Z,86.91
2023-03-05T04:12:48.558Z,86.94
2023-03-05T04:17:51.354Z,87.52
2023-03-05T04:22:54.263Z,88.42
2023-03-05T04:27:57.160Z,89.48
2023-03-05T04:33:00.079Z,90.37
2023-03-05T04:38:03.069Z,90.82
2023-03-05T04:43:06.687Z,91.84
2023-03-05T04:48:11.362Z,92.19
2023-03-05T04:53:14.229Z,92.09
2023-03-05T04:58:17.060Z,92.38
2023-03-05T05:03:19.938Z,93.33
2023-03-05T05:08:23.357Z,93.97
2023-03-05T05:13:26.764Z,94.51
2023-03-05T05:18:29.676Z,95.18
2023-03-05T05:23:32.573Z,94.94
2023-03-05T05:28:35.909Z,95.04
2023-03-05T05:33:39.095Z,95.87
2023-03-05T05:38:42.209Z,96.32
2023-03-05T05:43:45.810Z,97.00
2023-03-05T05:48:48.948Z,98.89
2023-03-05T05:53:52.358Z,99.59
2023-03-05T05:58:55.380Z,99.26
2023-03-05T06:03:58.470Z,98.65
2023-03-05T06:09:01.374Z,97.75
2023-03-05T06:14:05.069Z,98.00
2023-03-05T06:19:12.037Z,98.75
2023-03-05T06:24:15.003Z,99.40
2023-03-05T06:29:18.345Z,99.97
2023-03-05T06:34:21.624Z,100.00
2023-03-05T06:39:24.429Z,99.99
2023-03-05T06:44:27.427Z,99.99
2023-03-05T06:49:30.231Z,99.78
2023-03-05T06:54:33.137Z,99.41
2023-03-05T06:59:35.937Z,99.31
2023-03-05T07:04:38.837Z,98.95
2023-03-05T07:09:44.309Z,98.67
2023-03-05T07:14:47.204Z,98.63
2023-03-05T07:19:50.135Z,97.83
2023-03-05T07:24:53.019Z,96.52
2023-03-05T07:29:55.915Z,94.61
2023-03-05T07:34:58.818Z,93.07
2023-03-05T07:40:01.730Z,91.27
2023-03-05T07:45:05.259Z,90.10
2023-03-05T07:50:09.126Z,88.11
2023-03-05T07:55:12.176Z,86.07
2023-03-05T08:00:15.723Z,84.49
2023-03-05T08:05:18.804Z,82.98
2023-03-05T08:10:21.709Z,82.38
2023-03-05T08:15:25.122Z,80.08
2023-03-05T08:20:27.988Z,77.82
2023-03-05T08:25:31.713Z,77.04
2023-03-05T08:30:34.546Z,75.89
2023-03-05T08:35:37.846Z,75.11
2023-03-05T08:40:40.866Z,74.65
2023-03-05T08:45:43.770Z,73.08
2023-03-05T08:50:46.671Z,72.68
2023-03-05T08:55:58.915Z,71.94
2023-03-05T09:01:01.800Z,70.53
2023-03-05T09:06:08.125Z,69.81
2023-03-05T09:11:13.350Z,68.27
2023-03-05T09:16:17.977Z,68.10
2023-03-05T09:21:21.427Z,63.90
2023-03-05T09:26:24.305Z,62.84
2023-03-05T09:31:27.337Z,64.22
2023-03-05T09:36:32.079Z,64.34
2023-03-05T09:41:53.911Z,63.31
2023-03-05T09:47:15.748Z,60.83
2023-03-05T09:52:23.677Z,59.73
2023-03-05T09:57:38.814Z,60.52
2023-03-05T10:02:51.085Z,60.21
2023-03-05T10:08:01.509Z,58.98
2023-03-05T10:13:28.737Z,56.85
2023-03-05T10:18:42.451Z,57.53
2023-03-05T10:23:50.712Z,55.61
2023-03-05T10:29:21.195Z,52.81
2023-03-05T10:34:31.335Z,52.38
2023-03-05T10:39:43.421Z,52.32
2023-03-05T10:45:00.219Z,51.51
2023-03-05T10:50:12.828Z,52.79
2023-03-05T10:55:19.525Z,53.02
2023-03-05T11:00:25.770Z,54.30
2023-03-05T11:05:47.256Z,55.72
2023-03-05T11:11:08.473Z,54.60
2023-03-05T11:16:25.093Z,52.77
2023-03-05T11:21:28.818Z,51.27
2023-03-05T11:26:32.127Z,50.82
2023-03-05T11:31:34.830Z,50.66
2023-03-05T11:36:42.769Z,50.14
2023-03-05T11:41:48.530Z,51.47
2023-03-05T11:46:56.400Z,56.25
2023-03-05T11:52:17.333Z,62.51
2023-03-05T11:57:23.448Z,62.58
2023-03-05T12:02:28.044Z,62.50
2023-03-05T12:07:40.653Z,63.38
2023-03-05T12:13:03.109Z,71.25
2023-03-05T12:18:08.873Z,74.91
2023-03-05T12:23:14.698Z,75.54
2023-03-05T12:28:46.113Z,73.04
2023-03-05T12:33:49.013Z,67.91
2023-03-05T12:38:54.507Z,65.11
2023-03-05T12:44:06.394Z,61.76
2023-03-05T12:49:18.201Z,62.29
2023-03-05T12:54:29.009Z,62.13
2023-03-05T12:59:46.086Z,62.32
2023-03-05T13:04:52.734Z,57.98
2023-03-05T13:09:58.285Z,55.61
2023-03-05T13:15:06.566Z,55.00
2023-03-05T13:20:40.723Z,53.37
2023-03-05T13:25:56.644Z,51.20
2023-03-05T13:31:04.120Z,48.88
2023-03-05T13:36:07.576Z,47.76
2023-03-05T13:41:38.708Z,46.99
2023-03-05T13:46:44.994Z,47.48
2023-03-05T13:51:54.703Z,47.87
2023-03-05T13:57:08.524Z,49.09
2023-03-05T14:02:18.406Z,49.17
2023-03-05T14:07:47.607Z,49.70
2023-03-05T14:12:51.123Z,49.83
2023-03-05T14:18:09.450Z,49.49
2023-03-05T14:23:30.935Z,48.56
2023-03-05T14:28:34.680Z,47.76
2023-03-05T14:33:37.685Z,48.67
2023-03-05T14:38:43.021Z,49.49
2023-03-05T14:43:46.052Z,50.81
2023-03-05T14:48:48.960Z,51.66
2023-03-05T14:53:51.983Z,51.96
2023-03-05T14:58:55.485Z,51.89
2023-03-05T15:03:58.491Z,51.61
2023-03-05T15:09:01.907Z,50.80
2023-03-05T15:14:04.805Z,49.69
2023-03-05T15:19:09.550Z,46.79
2023-03-05T15:24:14.902Z,45.88
2023-03-05T15:29:17.712Z,46.37
2023-03-05T15:34:20.615Z,45.91
2023-03-05T15:39:27.311Z,46.21
2023-03-05T15:44:30.215Z,45.78
2023-03-05T15:49:33.237Z,45.90
2023-03-05T15:54:36.978Z,46.81
2023-03-05T15:59:40.520Z,47.68
2023-03-05T16:04:43.367Z,56.77
2023-03-05T16:09:50.378Z,61.84
2023-03-05T16:14:53.271Z,66.06
2023-03-05T16:19:56.379Z,68.70
2023-03-05T16:25:01.366Z,72.52
2023-03-05T16:30:05.521Z,76.68
2023-03-05T16:35:11.973Z,81.04
2023-03-05T16:40:15.539Z,85.18
2023-03-05T16:45:18.429Z,86.08
2023-03-05T16:50:21.474Z,86.00
2023-03-05T16:55:24.286Z,85.67
2023-03-05T17:00:27.188Z,86.50
2023-03-05T17:05:30.189Z,89.01
2023-03-05T17:10:33.710Z,89.52
2023-03-05T17:15:36.919Z,91.43
2023-03-05T17:20:40.924Z,92.97
2023-03-05T17:25:43.851Z,94.27
2023-03-05T17:30:46.800Z,95.31
2023-03-05T17:35:50.090Z,98.14
2023-03-05T17:40:53.485Z,99.58
2023-03-05T17:45:59.916Z,100.00
2023-03-05T17:51:03.002Z,100.00
2023-03-05T17:56:13.881Z,100.00
2023-03-05T18:01:29.732Z,100.00
2023-03-05T18:06:32.681Z,100.00
2023-03-05T18:11:36.101Z,100.00
2023-03-05T18:16:39.207Z,100.00
2023-03-05T18:21:42.317Z,100.00
2023-03-05T18:26:45.117Z,100.00
2023-03-05T18:31:48.117Z,100.00
2023-03-05T18:36:51.698Z,100.00
2023-03-05T18:41:55.465Z,100.00
2023-03-05T18:46:58.359Z,100.00
2023-03-05T18:52:01.571Z,100.00
2023-03-05T18:57:04.372Z,100.00
2023-03-05T19:02:14.449Z,100.00
2023-03-05T19:07:17.369Z,100.00
2023-03-05T19:12:22.650Z,100.00
2023-03-05T19:17:26.116Z,100.00
2023-03-05T19:22:29.750Z,100.00
2023-03-05T19:27:33.064Z,100.00
2023-03-05T19:32:36.214Z,100.00
2023-03-05T19:37:39.072Z,100.00
2023-03-05T19:42:42.088Z,100.00
2023-03-05T19:47:45.087Z,100.00
2023-03-05T19:52:47.984Z,100.00
2023-03-05T19:57:50.886Z,100.00
2023-03-05T20:02:53.790Z,100.00
2023-03-05T20:07:57.129Z,100.00
2023-03-05T20:13:00.008Z,100.00
2023-03-05T20:18:02.910Z,100.00
2023-03-05T20:23:05.816Z,100.00
2023-03-05T20:28:08.722Z,100.00
2023-03-05T20:33:11.723Z,100.00
2023-03-05T20:38:22.478Z,100.00
2023-03-05T20:43:28.796Z,100.00
2023-03-05T20:48:34.443Z,100.00
2023-03-05T20:53:37.232Z,100.00
2023-03-05T20:58:40.172Z,100.00
2023-03-05T21:03:42.990Z,100.00
2023-03-05T21:08:45.981Z,100.00
2023-03-05T21:13:49.190Z,100.00
2023-03-05T21:18:53.060Z,100.00
2023-03-05T21:23:56.033Z,100.00
2023-03-05T21:28:59.027Z,100.00
2023-03-05T21:34:01.931Z,100.00
2023-03-05T21:39:04.836Z,100.00
2023-03-05T21:44:08.733Z,100.00
2023-03-05T21:49:12.689Z,100.00
2023-03-05T21:54:15.485Z,100.00
2023-03-05T21:59:18.391Z,100.00
2023-03-05T22:04:21.290Z,100.00
2023-03-05T22:09:24.109Z,100.00
2023-03-05T22:14:26.962Z,100.00
2023-03-05T22:19:30.002Z,100.00
2023-03-05T22:24:32.798Z,100.00
2023-03-05T22:29:35.642Z,100.00
2023-03-05T22:34:38.504Z,100.00
2023-03-05T22:39:41.405Z,100.00
2023-03-05T22:44:44.216Z,100.00
2023-03-05T22:49:47.110Z,100.00
2023-03-05T22:54:50.016Z,100.00
2023-03-05T22:59:53.529Z,100.00
2023-03-05T23:05:00.642Z,100.00
2023-03-05T23:10:08.786Z,100.00
2023-03-05T23:15:15.166Z,100.00
2023-03-05T23:20:21.213Z,100.00
2023-03-05T23:25:27.523Z,100.00
2023-03-05T23:30:37.309Z,100.00
2023-03-05T23:35:43.185Z,100.00
2023-03-05T23:40:48.921Z,100.00
2023-03-05T23:45:55.250Z,100.00
2023-03-05T23:50:58.207Z,100.00
2023-03-05T23:56:01.511Z,100.00
